sensor_id;sensor_type;location;lat;lon;timestamp;P1;durP1;ratioP1;P2;durP2;ratioP2
39864;SDS011;25538;48.392;9.976;2022-09-24T00:01:18;17.33;;;15.82;;
39864;SDS011;25538;48.392;9.976;2022-09-24T00:03:49;16.00;;;14.48;;
39864;SDS011;25538;48.392;9.976;2022-09-24T00:06:20;14.30;;;12.90;;
39864;SDS011;25538;48.392;9.976;2022-09-24T00:08:48;16.73;;;15.40;;
39864;SDS011;25538;48.392;9.976;2022-09-24T00:11:15;17.75;;;16.23;;
39864;SDS011;25538;48.392;9.976;2022-09-24T00:13:44;15.65;;;14.35;;
39864;SDS011;25538;48.392;9.976;2022-09-24T00:16:11;16.52;;;15.13;;
39864;SDS011;25538;48.392;9.976;2022-09-24T00:18:38;17.63;;;15.95;;
39864;SDS011;25538;48.392;9.976;2022-09-24T00:21:18;15.50;;;14.30;;
39864;SDS011;25538;48.392;9.976;2022-09-24T00:23:47;16.85;;;15.48;;
39864;SDS011;25538;48.392;9.976;2022-09-24T00:26:13;17.48;;;15.88;;
39864;SDS011;25538;48.392;9.976;2022-09-24T00:28:58;16.73;;;15.43;;
39864;SDS011;25538;48.392;9.976;2022-09-24T00:31:24;16.33;;;15.02;;
39864;SDS011;25538;48.392;9.976;2022-09-24T00:33:50;17.10;;;15.50;;
39864;SDS011;25538;48.392;9.976;2022-09-24T00:36:18;18.10;;;16.58;;
39864;SDS011;25538;48.392;9.976;2022-09-24T00:38:47;17.23;;;15.82;;
39864;SDS011;25538;48.392;9.976;2022-09-24T00:41:15;16.80;;;15.50;;
39864;SDS011;25538;48.392;9.976;2022-09-24T00:43:44;18.73;;;17.00;;
39864;SDS011;25538;48.392;9.976;2022-09-24T00:49:05;16.13;;;14.73;;
39864;SDS011;25538;48.392;9.976;2022-09-24T00:51:41;17.33;;;15.52;;
39864;SDS011;25538;48.392;9.976;2022-09-24T00:54:11;15.75;;;14.43;;
39864;SDS011;25538;48.392;9.976;2022-09-24T00:56:47;17.00;;;15.32;;
39864;SDS011;25538;48.392;9.976;2022-09-24T00:59:14;17.48;;;15.95;;
39864;SDS011;25538;48.392;9.976;2022-09-24T01:01:43;17.30;;;15.60;;
39864;SDS011;25538;48.392;9.976;2022-09-24T01:04:10;17.15;;;15.65;;
39864;SDS011;25538;48.392;9.976;2022-09-24T01:06:38;17.23;;;15.82;;
39864;SDS011;25538;48.392;9.976;2022-09-24T01:09:04;15.35;;;14.25;;
39864;SDS011;25538;48.392;9.976;2022-09-24T01:11:41;16.30;;;14.85;;
39864;SDS011;25538;48.392;9.976;2022-09-24T01:14:17;17.00;;;15.70;;
39864;SDS011;25538;48.392;9.976;2022-09-24T01:16:58;16.77;;;15.20;;
39864;SDS011;25538;48.392;9.976;2022-09-24T01:19:47;15.52;;;14.32;;
39864;SDS011;25538;48.392;9.976;2022-09-24T01:30:23;17.83;;;16.38;;
39864;SDS011;25538;48.392;9.976;2022-09-24T01:32:51;16.50;;;15.05;;
39864;SDS011;25538;48.392;9.976;2022-09-24T01:35:31;17.45;;;15.63;;
39864;SDS011;25538;48.392;9.976;2022-09-24T01:38:08;16.70;;;15.30;;
39864;SDS011;25538;48.392;9.976;2022-09-24T01:40:44;16.20;;;14.85;;
39864;SDS011;25538;48.392;9.976;2022-09-24T01:43:11;16.75;;;15.35;;
39864;SDS011;25538;48.392;9.976;2022-09-24T01:45:39;17.30;;;15.70;;
39864;SDS011;25538;48.392;9.976;2022-09-24T01:48:05;15.98;;;14.77;;
39864;SDS011;25538;48.392;9.976;2022-09-24T01:50:33;16.85;;;15.27;;
39864;SDS011;25538;48.392;9.976;2022-09-24T01:53:24;16.77;;;15.27;;
39864;SDS011;25538;48.392;9.976;2022-09-24T01:55:56;16.00;;;14.60;;
39864;SDS011;25538;48.392;9.976;2022-09-24T01:58:32;16.55;;;15.25;;
39864;SDS011;25538;48.392;9.976;2022-09-24T02:01:02;16.63;;;15.43;;
39864;SDS011;25538;48.392;9.976;2022-09-24T02:03:37;16.83;;;15.40;;
39864;SDS011;25538;48.392;9.976;2022-09-24T02:08:40;15.75;;;14.35;;
39864;SDS011;25538;48.392;9.976;2022-09-24T02:11:12;16.27;;;14.82;;
39864;SDS011;25538;48.392;9.976;2022-09-24T02:13:45;14.70;;;13.50;;
39864;SDS011;25538;48.392;9.976;2022-09-24T02:16:20;17.50;;;14.75;;
39864;SDS011;25538;48.392;9.976;2022-09-24T02:18:51;17.83;;;16.02;;
39864;SDS011;25538;48.392;9.976;2022-09-24T02:21:20;16.45;;;15.15;;
39864;SDS011;25538;48.392;9.976;2022-09-24T02:23:56;17.40;;;15.75;;
39864;SDS011;25538;48.392;9.976;2022-09-24T02:26:27;16.67;;;15.45;;
39864;SDS011;25538;48.392;9.976;2022-09-24T02:28:53;17.40;;;15.93;;
39864;SDS011;25538;48.392;9.976;2022-09-24T02:31:21;15.83;;;14.30;;
39864;SDS011;25538;48.392;9.976;2022-09-24T02:33:51;15.50;;;14.25;;
39864;SDS011;25538;48.392;9.976;2022-09-24T02:36:39;15.25;;;13.82;;
39864;SDS011;25538;48.392;9.976;2022-09-24T02:39:06;14.88;;;13.68;;
39864;SDS011;25538;48.392;9.976;2022-09-24T02:41:32;15.35;;;14.02;;
39864;SDS011;25538;48.392;9.976;2022-09-24T02:43:58;15.77;;;14.40;;
39864;SDS011;25538;48.392;9.976;2022-09-24T02:46:24;15.90;;;14.50;;
39864;SDS011;25538;48.392;9.976;2022-09-24T02:48:50;15.00;;;13.60;;
39864;SDS011;25538;48.392;9.976;2022-09-24T02:51:16;14.87;;;13.47;;
39864;SDS011;25538;48.392;9.976;2022-09-24T02:53:42;16.73;;;15.33;;
39864;SDS011;25538;48.392;9.976;2022-09-24T02:56:08;17.53;;;16.10;;
39864;SDS011;25538;48.392;9.976;2022-09-24T02:58:40;16.30;;;14.90;;
39864;SDS011;25538;48.392;9.976;2022-09-24T03:01:07;17.67;;;16.08;;
39864;SDS011;25538;48.392;9.976;2022-09-24T03:03:33;17.07;;;15.63;;
39864;SDS011;25538;48.392;9.976;2022-09-24T03:05:59;17.53;;;16.03;;
39864;SDS011;25538;48.392;9.976;2022-09-24T03:08:25;18.33;;;16.70;;
39864;SDS011;25538;48.392;9.976;2022-09-24T03:10:51;16.88;;;15.48;;
39864;SDS011;25538;48.392;9.976;2022-09-24T03:13:17;17.98;;;16.27;;
39864;SDS011;25538;48.392;9.976;2022-09-24T03:15:44;17.87;;;16.17;;
39864;SDS011;25538;48.392;9.976;2022-09-24T03:18:10;17.85;;;16.35;;
39864;SDS011;25538;48.392;9.976;2022-09-24T03:20:36;16.45;;;15.25;;
39864;SDS011;25538;48.392;9.976;2022-09-24T03:23:02;16.80;;;15.30;;
39864;SDS011;25538;48.392;9.976;2022-09-24T03:25:28;17.55;;;15.95;;
39864;SDS011;25538;48.392;9.976;2022-09-24T03:27:54;18.90;;;17.10;;
39864;SDS011;25538;48.392;9.976;2022-09-24T03:30:20;17.67;;;15.85;;
39864;SDS011;25538;48.392;9.976;2022-09-24T03:33:05;19.10;;;16.10;;
39864;SDS011;25538;48.392;9.976;2022-09-24T03:35:31;17.52;;;15.93;;
39864;SDS011;25538;48.392;9.976;2022-09-24T03:37:57;18.43;;;16.83;;
39864;SDS011;25538;48.392;9.976;2022-09-24T03:40:23;16.60;;;15.23;;
39864;SDS011;25538;48.392;9.976;2022-09-24T03:42:49;18.73;;;17.10;;
39864;SDS011;25538;48.392;9.976;2022-09-24T03:45:15;17.33;;;15.82;;
39864;SDS011;25538;48.392;9.976;2022-09-24T03:47:41;16.90;;;15.43;;
39864;SDS011;25538;48.392;9.976;2022-09-24T03:50:08;16.75;;;15.55;;
39864;SDS011;25538;48.392;9.976;2022-09-24T03:52:37;17.38;;;15.85;;
39864;SDS011;25538;48.392;9.976;2022-09-24T03:55:03;17.13;;;15.73;;
39864;SDS011;25538;48.392;9.976;2022-09-24T03:57:30;17.23;;;15.77;;
39864;SDS011;25538;48.392;9.976;2022-09-24T03:59:55;17.77;;;16.20;;
39864;SDS011;25538;48.392;9.976;2022-09-24T04:02:22;15.95;;;14.75;;
39864;SDS011;25538;48.392;9.976;2022-09-24T04:04:48;17.00;;;15.60;;
39864;SDS011;25538;48.392;9.976;2022-09-24T04:07:14;18.80;;;16.90;;
39864;SDS011;25538;48.392;9.976;2022-09-24T04:09:40;17.53;;;16.03;;
39864;SDS011;25538;48.392;9.976;2022-09-24T04:12:06;18.67;;;17.10;;
39864;SDS011;25538;48.392;9.976;2022-09-24T04:14:32;18.23;;;16.63;;
39864;SDS011;25538;48.392;9.976;2022-09-24T04:16:58;19.03;;;17.50;;
39864;SDS011;25538;48.392;9.976;2022-09-24T04:19:24;17.47;;;15.90;;
39864;SDS011;25538;48.392;9.976;2022-09-24T04:21:51;18.00;;;16.60;;
39864;SDS011;25538;48.392;9.976;2022-09-24T04:24:17;17.90;;;16.40;;
39864;SDS011;25538;48.392;9.976;2022-09-24T04:26:43;18.15;;;16.65;;
39864;SDS011;25538;48.392;9.976;2022-09-24T04:29:09;17.67;;;16.33;;
39864;SDS011;25538;48.392;9.976;2022-09-24T04:31:35;18.00;;;16.20;;
39864;SDS011;25538;48.392;9.976;2022-09-24T04:34:01;17.80;;;16.30;;
39864;SDS011;25538;48.392;9.976;2022-09-24T04:36:26;18.83;;;17.10;;
39864;SDS011;25538;48.392;9.976;2022-09-24T04:38:52;18.43;;;16.87;;
39864;SDS011;25538;48.392;9.976;2022-09-24T04:41:18;19.03;;;17.43;;
39864;SDS011;25538;48.392;9.976;2022-09-24T04:43:45;19.27;;;17.10;;
39864;SDS011;25538;48.392;9.976;2022-09-24T04:46:11;19.73;;;18.10;;
39864;SDS011;25538;48.392;9.976;2022-09-24T04:48:37;18.73;;;17.10;;
39864;SDS011;25538;48.392;9.976;2022-09-24T04:51:07;19.23;;;17.52;;
39864;SDS011;25538;48.392;9.976;2022-09-24T04:53:33;20.15;;;18.58;;
39864;SDS011;25538;48.392;9.976;2022-09-24T04:56:04;18.88;;;17.17;;
39864;SDS011;25538;48.392;9.976;2022-09-24T04:58:36;19.60;;;18.00;;
39864;SDS011;25538;48.392;9.976;2022-09-24T05:01:03;18.98;;;17.33;;
39864;SDS011;25538;48.392;9.976;2022-09-24T05:03:29;19.80;;;18.25;;
39864;SDS011;25538;48.392;9.976;2022-09-24T05:05:55;20.00;;;18.20;;
39864;SDS011;25538;48.392;9.976;2022-09-24T05:08:21;19.97;;;18.23;;
39864;SDS011;25538;48.392;9.976;2022-09-24T05:10:47;19.88;;;18.30;;
39864;SDS011;25538;48.392;9.976;2022-09-24T05:13:13;20.53;;;18.77;;
39864;SDS011;25538;48.392;9.976;2022-09-24T05:15:39;18.40;;;16.90;;
39864;SDS011;25538;48.392;9.976;2022-09-24T05:18:05;18.70;;;17.10;;
39864;SDS011;25538;48.392;9.976;2022-09-24T05:20:31;19.10;;;17.60;;
39864;SDS011;25538;48.392;9.976;2022-09-24T05:22:57;18.67;;;17.08;;
39864;SDS011;25538;48.392;9.976;2022-09-24T05:25:23;21.17;;;19.27;;
39864;SDS011;25538;48.392;9.976;2022-09-24T05:27:50;18.00;;;16.50;;
39864;SDS011;25538;48.392;9.976;2022-09-24T05:30:17;18.98;;;17.55;;
39864;SDS011;25538;48.392;9.976;2022-09-24T05:32:45;20.20;;;18.40;;
39864;SDS011;25538;48.392;9.976;2022-09-24T05:35:14;20.80;;;19.05;;
39864;SDS011;25538;48.392;9.976;2022-09-24T05:37:39;20.75;;;19.15;;
39864;SDS011;25538;48.392;9.976;2022-09-24T05:40:06;17.20;;;15.80;;
39864;SDS011;25538;48.392;9.976;2022-09-24T05:42:51;20.23;;;18.40;;
39864;SDS011;25538;48.392;9.976;2022-09-24T05:45:23;19.60;;;17.98;;
39864;SDS011;25538;48.392;9.976;2022-09-24T05:47:49;19.13;;;17.33;;
39864;SDS011;25538;48.392;9.976;2022-09-24T05:50:15;19.13;;;17.33;;
39864;SDS011;25538;48.392;9.976;2022-09-24T05:52:41;19.37;;;17.60;;
39864;SDS011;25538;48.392;9.976;2022-09-24T05:55:07;17.93;;;16.43;;
39864;SDS011;25538;48.392;9.976;2022-09-24T05:57:34;17.10;;;15.63;;
39864;SDS011;25538;48.392;9.976;2022-09-24T06:00:00;16.98;;;15.48;;
39864;SDS011;25538;48.392;9.976;2022-09-24T06:02:26;17.63;;;16.00;;
39864;SDS011;25538;48.392;9.976;2022-09-24T06:04:52;18.10;;;16.40;;
39864;SDS011;25538;48.392;9.976;2022-09-24T06:07:19;18.23;;;16.63;;
39864;SDS011;25538;48.392;9.976;2022-09-24T06:09:45;17.42;;;15.80;;
39864;SDS011;25538;48.392;9.976;2022-09-24T06:12:12;17.60;;;16.17;;
39864;SDS011;25538;48.392;9.976;2022-09-24T06:14:38;19.42;;;17.90;;
39864;SDS011;25538;48.392;9.976;2022-09-24T06:17:07;19.25;;;17.75;;
39864;SDS011;25538;48.392;9.976;2022-09-24T06:19:33;18.60;;;17.10;;
39864;SDS011;25538;48.392;9.976;2022-09-24T06:22:00;18.30;;;16.80;;
39864;SDS011;25538;48.392;9.976;2022-09-24T06:24:26;17.75;;;16.25;;
39864;SDS011;25538;48.392;9.976;2022-09-24T06:26:51;17.77;;;16.37;;
39864;SDS011;25538;48.392;9.976;2022-09-24T06:29:17;17.70;;;16.13;;
39864;SDS011;25538;48.392;9.976;2022-09-24T06:31:43;19.17;;;17.48;;
39864;SDS011;25538;48.392;9.976;2022-09-24T06:34:10;18.10;;;16.60;;
39864;SDS011;25538;48.392;9.976;2022-09-24T06:36:36;15.82;;;14.57;;
39864;SDS011;25538;48.392;9.976;2022-09-24T06:39:02;16.73;;;15.20;;
39864;SDS011;25538;48.392;9.976;2022-09-24T06:41:27;18.00;;;16.60;;
39864;SDS011;25538;48.392;9.976;2022-09-24T06:43:54;16.33;;;14.90;;
39864;SDS011;25538;48.392;9.976;2022-09-24T06:46:20;17.50;;;16.02;;
39864;SDS011;25538;48.392;9.976;2022-09-24T06:48:50;16.45;;;15.15;;
39864;SDS011;25538;48.392;9.976;2022-09-24T06:51:18;18.35;;;16.75;;
39864;SDS011;25538;48.392;9.976;2022-09-24T06:53:44;17.00;;;15.70;;
39864;SDS011;25538;48.392;9.976;2022-09-24T06:56:10;17.77;;;16.38;;
39864;SDS011;25538;48.392;9.976;2022-09-24T06:58:36;17.40;;;15.90;;
39864;SDS011;25538;48.392;9.976;2022-09-24T07:01:02;19.23;;;17.57;;
39864;SDS011;25538;48.392;9.976;2022-09-24T07:03:29;18.73;;;17.23;;
39864;SDS011;25538;48.392;9.976;2022-09-24T07:05:59;18.60;;;17.00;;
39864;SDS011;25538;48.392;9.976;2022-09-24T07:08:26;17.75;;;16.25;;
39864;SDS011;25538;48.392;9.976;2022-09-24T07:10:52;20.67;;;18.97;;
39864;SDS011;25538;48.392;9.976;2022-09-24T07:13:18;21.30;;;19.50;;
39864;SDS011;25538;48.392;9.976;2022-09-24T07:15:48;18.90;;;17.35;;
39864;SDS011;25538;48.392;9.976;2022-09-24T07:18:15;21.45;;;19.52;;
39864;SDS011;25538;48.392;9.976;2022-09-24T07:20:42;20.70;;;19.00;;
39864;SDS011;25538;48.392;9.976;2022-09-24T07:23:09;22.20;;;20.00;;
39864;SDS011;25538;48.392;9.976;2022-09-24T07:25:36;19.52;;;18.00;;
39864;SDS011;25538;48.392;9.976;2022-09-24T07:28:07;20.10;;;18.50;;
39864;SDS011;25538;48.392;9.976;2022-09-24T07:30:35;22.25;;;20.27;;
39864;SDS011;25538;48.392;9.976;2022-09-24T07:33:02;21.88;;;19.98;;
39864;SDS011;25538;48.392;9.976;2022-09-24T07:35:28;21.95;;;19.90;;
39864;SDS011;25538;48.392;9.976;2022-09-24T07:38:02;20.85;;;18.92;;
39864;SDS011;25538;48.392;9.976;2022-09-24T07:40:31;20.27;;;18.55;;
39864;SDS011;25538;48.392;9.976;2022-09-24T07:42:57;21.77;;;19.98;;
39864;SDS011;25538;48.392;9.976;2022-09-24T07:45:24;21.60;;;19.65;;
39864;SDS011;25538;48.392;9.976;2022-09-24T07:47:59;23.52;;;21.63;;
39864;SDS011;25538;48.392;9.976;2022-09-24T07:50:27;22.00;;;20.20;;
39864;SDS011;25538;48.392;9.976;2022-09-24T07:52:54;22.38;;;20.58;;
39864;SDS011;25538;48.392;9.976;2022-09-24T07:55:20;22.77;;;20.88;;
39864;SDS011;25538;48.392;9.976;2022-09-24T07:57:47;21.13;;;19.52;;
39864;SDS011;25538;48.392;9.976;2022-09-24T08:00:14;23.63;;;21.73;;
39864;SDS011;25538;48.392;9.976;2022-09-24T08:02:42;24.15;;;22.25;;
39864;SDS011;25538;48.392;9.976;2022-09-24T08:05:09;22.55;;;20.65;;
39864;SDS011;25538;48.392;9.976;2022-09-24T08:07:35;24.55;;;22.60;;
39864;SDS011;25538;48.392;9.976;2022-09-24T08:10:01;27.00;;;24.70;;
39864;SDS011;25538;48.392;9.976;2022-09-24T08:12:27;28.05;;;25.25;;
39864;SDS011;25538;48.392;9.976;2022-09-24T08:14:53;25.77;;;23.37;;
39864;SDS011;25538;48.392;9.976;2022-09-24T08:17:19;24.93;;;22.67;;
39864;SDS011;25538;48.392;9.976;2022-09-24T08:19:44;27.87;;;25.60;;
39864;SDS011;25538;48.392;9.976;2022-09-24T08:22:11;27.75;;;25.45;;
39864;SDS011;25538;48.392;9.976;2022-09-24T08:24:39;29.45;;;26.60;;
39864;SDS011;25538;48.392;9.976;2022-09-24T08:27:06;31.95;;;29.20;;
39864;SDS011;25538;48.392;9.976;2022-09-24T08:29:32;30.95;;;27.95;;
39864;SDS011;25538;48.392;9.976;2022-09-24T08:31:59;33.10;;;29.90;;
39864;SDS011;25538;48.392;9.976;2022-09-24T08:34:25;36.53;;;32.70;;
39864;SDS011;25538;48.392;9.976;2022-09-24T08:36:51;39.42;;;35.83;;
39864;SDS011;25538;48.392;9.976;2022-09-24T08:39:17;41.40;;;37.50;;
39864;SDS011;25538;48.392;9.976;2022-09-24T08:41:57;43.23;;;38.80;;
39864;SDS011;25538;48.392;9.976;2022-09-24T08:44:35;44.75;;;40.45;;
39864;SDS011;25538;48.392;9.976;2022-09-24T08:47:32;49.33;;;43.05;;
39864;SDS011;25538;48.392;9.976;2022-09-24T08:50:16;41.53;;;37.42;;
39864;SDS011;25538;48.392;9.976;2022-09-24T09:00:48;41.70;;;37.67;;
39864;SDS011;25538;48.392;9.976;2022-09-24T09:03:27;43.63;;;37.20;;
39864;SDS011;25538;48.392;9.976;2022-09-24T09:12:20;40.92;;;36.72;;
39864;SDS011;25538;48.392;9.976;2022-09-24T09:17:23;37.67;;;34.38;;
39864;SDS011;25538;48.392;9.976;2022-09-24T09:20:09;34.50;;;31.55;;
39864;SDS011;25538;48.392;9.976;2022-09-24T09:22:46;34.22;;;31.13;;
39864;SDS011;25538;48.392;9.976;2022-09-24T09:25:16;35.83;;;32.63;;
39864;SDS011;25538;48.392;9.976;2022-09-24T09:28:17;36.70;;;33.60;;
39864;SDS011;25538;48.392;9.976;2022-09-24T09:44:29;31.38;;;28.58;;
39864;SDS011;25538;48.392;9.976;2022-09-24T09:47:03;33.05;;;30.30;;
39864;SDS011;25538;48.392;9.976;2022-09-24T09:49:56;34.00;;;31.15;;
39864;SDS011;25538;48.392;9.976;2022-09-24T09:52:27;33.60;;;30.50;;
39864;SDS011;25538;48.392;9.976;2022-09-24T09:54:54;36.25;;;33.03;;
39864;SDS011;25538;48.392;9.976;2022-09-24T09:57:21;34.87;;;31.83;;
39864;SDS011;25538;48.392;9.976;2022-09-24T09:59:50;32.75;;;30.05;;
39864;SDS011;25538;48.392;9.976;2022-09-24T10:02:24;32.38;;;29.70;;
39864;SDS011;25538;48.392;9.976;2022-09-24T10:04:56;31.73;;;28.83;;
39864;SDS011;25538;48.392;9.976;2022-09-24T10:07:24;32.05;;;29.45;;
39864;SDS011;25538;48.392;9.976;2022-09-24T10:09:58;33.33;;;30.42;;
39864;SDS011;25538;48.392;9.976;2022-09-24T10:12:36;35.42;;;32.13;;
39864;SDS011;25538;48.392;9.976;2022-09-24T10:15:03;35.53;;;32.40;;
39864;SDS011;25538;48.392;9.976;2022-09-24T10:17:51;35.45;;;32.33;;
39864;SDS011;25538;48.392;9.976;2022-09-24T10:20:24;35.88;;;32.58;;
39864;SDS011;25538;48.392;9.976;2022-09-24T10:23:03;35.13;;;32.03;;
39864;SDS011;25538;48.392;9.976;2022-09-24T10:25:32;37.40;;;33.70;;
39864;SDS011;25538;48.392;9.976;2022-09-24T10:28:02;35.60;;;32.28;;
39864;SDS011;25538;48.392;9.976;2022-09-24T10:30:55;34.78;;;31.83;;
39864;SDS011;25538;48.392;9.976;2022-09-24T10:33:25;34.65;;;31.52;;
39864;SDS011;25538;48.392;9.976;2022-09-24T10:36:06;34.03;;;30.92;;
39864;SDS011;25538;48.392;9.976;2022-09-24T10:38:41;33.22;;;30.30;;
39864;SDS011;25538;48.392;9.976;2022-09-24T10:43:54;31.70;;;28.98;;
39864;SDS011;25538;48.392;9.976;2022-09-24T10:48:59;30.80;;;28.00;;
39864;SDS011;25538;48.392;9.976;2022-09-24T10:54:17;30.25;;;27.55;;
39864;SDS011;25538;48.392;9.976;2022-09-24T10:56:48;30.20;;;27.70;;
39864;SDS011;25538;48.392;9.976;2022-09-24T11:02:08;25.23;;;23.05;;
39864;SDS011;25538;48.392;9.976;2022-09-24T11:05:03;25.23;;;23.23;;
39864;SDS011;25538;48.392;9.976;2022-09-24T11:24:01;26.27;;;24.08;;
39864;SDS011;25538;48.392;9.976;2022-09-24T11:32:35;27.27;;;25.00;;
39864;SDS011;25538;48.392;9.976;2022-09-24T11:43:43;33.40;;;30.10;;
39864;SDS011;25538;48.392;9.976;2022-09-24T11:57:43;22.98;;;20.75;;
39864;SDS011;25538;48.392;9.976;2022-09-24T12:00:15;23.85;;;21.63;;
39864;SDS011;25538;48.392;9.976;2022-09-24T12:05:32;21.90;;;19.95;;
39864;SDS011;25538;48.392;9.976;2022-09-24T12:08:16;22.40;;;20.50;;
39864;SDS011;25538;48.392;9.976;2022-09-24T12:10:59;20.73;;;18.27;;
39864;SDS011;25538;48.392;9.976;2022-09-24T12:13:39;16.08;;;14.77;;
39864;SDS011;25538;48.392;9.976;2022-09-24T12:16:23;17.10;;;15.70;;
39864;SDS011;25538;48.392;9.976;2022-09-24T12:19:15;16.95;;;15.45;;
39864;SDS011;25538;48.392;9.976;2022-09-24T12:21:48;16.70;;;15.25;;
39864;SDS011;25538;48.392;9.976;2022-09-24T12:26:45;14.73;;;13.52;;
39864;SDS011;25538;48.392;9.976;2022-09-24T12:29:34;17.63;;;16.17;;
39864;SDS011;25538;48.392;9.976;2022-09-24T12:43:44;17.48;;;16.05;;
39864;SDS011;25538;48.392;9.976;2022-09-24T12:46:19;15.23;;;14.13;;
39864;SDS011;25538;48.392;9.976;2022-09-24T12:48:48;16.88;;;15.43;;
39864;SDS011;25538;48.392;9.976;2022-09-24T12:51:15;11.88;;;10.93;;
39864;SDS011;25538;48.392;9.976;2022-09-24T12:53:57;10.88;;;10.07;;
39864;SDS011;25538;48.392;9.976;2022-09-24T12:56:25;12.00;;;11.20;;
39864;SDS011;25538;48.392;9.976;2022-09-24T12:58:54;12.50;;;11.65;;
39864;SDS011;25538;48.392;9.976;2022-09-24T13:06:41;11.73;;;10.80;;
39864;SDS011;25538;48.392;9.976;2022-09-24T13:09:31;11.05;;;10.15;;
39864;SDS011;25538;48.392;9.976;2022-09-24T13:12:03;11.85;;;10.95;;
39864;SDS011;25538;48.392;9.976;2022-09-24T13:14:49;10.25;;;9.55;;
39864;SDS011;25538;48.392;9.976;2022-09-24T13:17:20;10.45;;;9.65;;
39864;SDS011;25538;48.392;9.976;2022-09-24T13:19:47;9.63;;;8.93;;
39864;SDS011;25538;48.392;9.976;2022-09-24T13:27:35;13.32;;;12.23;;
39864;SDS011;25538;48.392;9.976;2022-09-24T13:32:28;15.00;;;13.77;;
39864;SDS011;25538;48.392;9.976;2022-09-24T13:35:02;15.52;;;13.93;;
39864;SDS011;25538;48.392;9.976;2022-09-24T13:37:38;13.95;;;12.60;;
39864;SDS011;25538;48.392;9.976;2022-09-24T13:40:15;16.90;;;15.45;;
39864;SDS011;25538;48.392;9.976;2022-09-24T13:42:50;17.05;;;15.50;;
39864;SDS011;25538;48.392;9.976;2022-09-24T13:45:22;17.20;;;15.80;;
39864;SDS011;25538;48.392;9.976;2022-09-24T13:47:56;17.25;;;15.88;;
39864;SDS011;25538;48.392;9.976;2022-09-24T13:50:29;16.30;;;15.05;;
39864;SDS011;25538;48.392;9.976;2022-09-24T13:53:23;17.80;;;16.40;;
39864;SDS011;25538;48.392;9.976;2022-09-24T13:55:54;18.52;;;17.02;;
39864;SDS011;25538;48.392;9.976;2022-09-24T13:58:28;17.23;;;15.82;;
39864;SDS011;25538;48.392;9.976;2022-09-24T14:00:54;18.10;;;16.80;;
39864;SDS011;25538;48.392;9.976;2022-09-24T14:03:27;20.17;;;18.02;;
39864;SDS011;25538;48.392;9.976;2022-09-24T14:05:58;20.58;;;18.70;;
39864;SDS011;25538;48.392;9.976;2022-09-24T14:08:24;21.45;;;19.40;;
39864;SDS011;25538;48.392;9.976;2022-09-24T14:11:05;21.13;;;19.27;;
39864;SDS011;25538;48.392;9.976;2022-09-24T14:13:37;20.02;;;18.35;;
39864;SDS011;25538;48.392;9.976;2022-09-24T14:16:11;20.55;;;18.77;;
39864;SDS011;25538;48.392;9.976;2022-09-24T14:18:43;20.40;;;18.70;;
39864;SDS011;25538;48.392;9.976;2022-09-24T14:23:52;20.95;;;19.35;;
39864;SDS011;25538;48.392;9.976;2022-09-24T14:28:54;23.10;;;21.20;;
39864;SDS011;25538;48.392;9.976;2022-09-24T14:31:22;20.00;;;18.30;;
39864;SDS011;25538;48.392;9.976;2022-09-24T14:33:48;18.35;;;16.83;;
39864;SDS011;25538;48.392;9.976;2022-09-24T14:36:14;19.02;;;17.42;;
39864;SDS011;25538;48.392;9.976;2022-09-24T14:38:57;19.98;;;18.25;;
39864;SDS011;25538;48.392;9.976;2022-09-24T14:41:29;19.05;;;17.65;;
39864;SDS011;25538;48.392;9.976;2022-09-24T14:44:02;18.33;;;17.00;;
39864;SDS011;25538;48.392;9.976;2022-09-24T14:46:55;17.08;;;15.55;;
39864;SDS011;25538;48.392;9.976;2022-09-24T14:49:27;17.48;;;16.00;;
39864;SDS011;25538;48.392;9.976;2022-09-24T14:52:02;17.27;;;15.80;;
39864;SDS011;25538;48.392;9.976;2022-09-24T14:54:35;16.13;;;14.77;;
39864;SDS011;25538;48.392;9.976;2022-09-24T14:59:47;15.50;;;14.30;;
39864;SDS011;25538;48.392;9.976;2022-09-24T15:02:30;16.45;;;15.15;;
39864;SDS011;25538;48.392;9.976;2022-09-24T15:05:02;18.52;;;17.02;;
39864;SDS011;25538;48.392;9.976;2022-09-24T15:07:31;18.85;;;17.25;;
39864;SDS011;25538;48.392;9.976;2022-09-24T15:09:59;21.33;;;19.65;;
39864;SDS011;25538;48.392;9.976;2022-09-24T15:12:27;20.77;;;18.98;;
39864;SDS011;25538;48.392;9.976;2022-09-24T15:14:59;18.88;;;17.48;;
39864;SDS011;25538;48.392;9.976;2022-09-24T15:17:32;21.70;;;19.90;;
39864;SDS011;25538;48.392;9.976;2022-09-24T15:20:00;19.70;;;17.90;;
39864;SDS011;25538;48.392;9.976;2022-09-24T15:22:27;17.33;;;16.13;;
39864;SDS011;25538;48.392;9.976;2022-09-24T15:24:55;18.20;;;16.80;;
39864;SDS011;25538;48.392;9.976;2022-09-24T15:27:23;17.13;;;15.40;;
39864;SDS011;25538;48.392;9.976;2022-09-24T15:29:54;16.83;;;15.32;;
39864;SDS011;25538;48.392;9.976;2022-09-24T15:32:23;15.18;;;14.00;;
39864;SDS011;25538;48.392;9.976;2022-09-24T15:34:51;17.05;;;15.60;;
39864;SDS011;25538;48.392;9.976;2022-09-24T15:37:20;15.80;;;14.60;;
39864;SDS011;25538;48.392;9.976;2022-09-24T15:39:48;16.33;;;15.13;;
39864;SDS011;25538;48.392;9.976;2022-09-24T15:42:19;14.90;;;13.80;;
39864;SDS011;25538;48.392;9.976;2022-09-24T15:44:47;16.95;;;15.68;;
39864;SDS011;25538;48.392;9.976;2022-09-24T15:47:15;18.98;;;17.38;;
39864;SDS011;25538;48.392;9.976;2022-09-24T15:49:41;18.52;;;16.95;;
39864;SDS011;25538;48.392;9.976;2022-09-24T15:52:10;19.60;;;18.10;;
39864;SDS011;25538;48.392;9.976;2022-09-24T15:54:38;17.48;;;15.98;;
39864;SDS011;25538;48.392;9.976;2022-09-24T15:57:04;17.15;;;15.77;;
39864;SDS011;25538;48.392;9.976;2022-09-24T15:59:30;19.17;;;17.67;;
39864;SDS011;25538;48.392;9.976;2022-09-24T16:02:00;20.53;;;18.73;;
39864;SDS011;25538;48.392;9.976;2022-09-24T16:04:28;19.45;;;17.77;;
39864;SDS011;25538;48.392;9.976;2022-09-24T16:06:54;20.35;;;18.75;;
39864;SDS011;25538;48.392;9.976;2022-09-24T16:09:20;20.23;;;18.60;;
39864;SDS011;25538;48.392;9.976;2022-09-24T16:11:46;20.10;;;18.40;;
39864;SDS011;25538;48.392;9.976;2022-09-24T16:14:11;19.53;;;18.07;;
39864;SDS011;25538;48.392;9.976;2022-09-24T16:16:38;19.07;;;17.57;;
39864;SDS011;25538;48.392;9.976;2022-09-24T16:19:04;20.33;;;18.63;;
39864;SDS011;25538;48.392;9.976;2022-09-24T16:21:31;21.35;;;19.65;;
39864;SDS011;25538;48.392;9.976;2022-09-24T16:23:57;20.65;;;19.05;;
39864;SDS011;25538;48.392;9.976;2022-09-24T16:26:24;22.60;;;20.83;;
39864;SDS011;25538;48.392;9.976;2022-09-24T16:28:50;21.60;;;19.88;;
39864;SDS011;25538;48.392;9.976;2022-09-24T16:31:17;21.35;;;19.55;;
39864;SDS011;25538;48.392;9.976;2022-09-24T16:33:43;21.08;;;19.35;;
39864;SDS011;25538;48.392;9.976;2022-09-24T16:36:09;21.30;;;19.50;;
39864;SDS011;25538;48.392;9.976;2022-09-24T16:38:36;22.70;;;20.77;;
39864;SDS011;25538;48.392;9.976;2022-09-24T16:41:03;22.60;;;20.90;;
39864;SDS011;25538;48.392;9.976;2022-09-24T16:43:30;21.27;;;19.15;;
39864;SDS011;25538;48.392;9.976;2022-09-24T16:46:00;23.65;;;21.85;;
39864;SDS011;25538;48.392;9.976;2022-09-24T16:48:28;24.10;;;22.00;;
39864;SDS011;25538;48.392;9.976;2022-09-24T16:51:00;23.05;;;21.15;;
39864;SDS011;25538;48.392;9.976;2022-09-24T16:53:33;23.38;;;21.42;;